Time;durP1;ratioP1;P1;durP2;ratioP2;P2;SDS_P1;SDS_P2;PMS_P1;PMS_P2;Temp;Humidity;BMP_temperature;BMP_pressure;BME280_temperature;BME280_humidity;BME280_pressure;Samples;Min_cycle;Max_cycle;Signal;HPM_P1;HPM_P2
2022/09/11 00:02:15;;;;;;;53.45;33.25;;;16.00;99.90;;;;;;5050602;28;20399;-73
2022/09/11 00:04:40;;;;;;;50.55;30.95;;;15.90;99.90;;;;;;5050923;28;20447;-74
2022/09/11 00:07:06;;;;;;;52.50;31.80;;;16.00;99.90;;;;;;5049133;28;20430;-72
2022/09/11 00:09:32;;;;;;;52.17;30.77;;;16.00;99.90;;;;;;5049011;28;20425;-74
2022/09/11 00:11:58;;;;;;;52.42;31.52;;;16.00;99.90;;;;;;5049161;28;20411;-71
2022/09/11 00:14:25;;;;;;;48.83;30.88;;;16.10;99.90;;;;;;5050037;28;20379;-74
2022/09/11 00:16:50;;;;;;;62.63;34.47;;;15.90;99.90;;;;;;5047790;28;20391;-71
2022/09/11 00:19:18;;;;;;;53.53;31.70;;;15.70;99.90;;;;;;5044978;28;20526;-71
2022/09/11 00:21:45;;;;;;;55.65;33.17;;;15.80;99.90;;;;;;5047902;28;20407;-71
2022/09/11 00:24:11;;;;;;;58.03;35.60;;;15.90;99.90;;;;;;5048761;28;20799;-72
2022/09/11 00:26:37;;;;;;;58.80;35.88;;;15.80;99.90;;;;;;5047967;28;20407;-71
2022/09/11 00:29:03;;;;;;;63.25;36.15;;;15.90;99.90;;;;;;5047745;28;20450;-72
2022/09/11 00:31:31;;;;;;;68.15;39.47;;;15.90;99.90;;;;;;5047947;28;20379;-72
2022/09/11 00:33:56;;;;;;;68.40;37.40;;;15.90;99.90;;;;;;5065823;28;20398;-73
2022/09/11 00:36:25;;;;;;;66.93;37.87;;;15.80;99.90;;;;;;5051913;28;20395;-71
2022/09/11 00:38:51;;;;;;;60.72;36.35;;;15.80;99.90;;;;;;5048287;28;20410;-72
2022/09/11 00:41:34;;;;;;;62.03;38.28;;;15.80;99.90;;;;;;5046870;28;20453;-71
2022/09/11 00:44:02;;;;;;;60.88;35.95;;;16.00;99.90;;;;;;5049088;28;20390;-72
2022/09/11 00:46:33;;;;;;;57.95;34.50;;;15.90;99.90;;;;;;5049311;28;20478;-71
2022/09/11 00:49:01;;;;;;;56.00;34.20;;;16.00;99.90;;;;;;5051150;28;20457;-71
2022/09/11 00:51:32;;;;;;;55.08;33.42;;;16.10;99.90;;;;;;5051913;28;20398;-72
2022/09/11 00:53:59;;;;;;;54.17;33.20;;;16.20;99.90;;;;;;5051798;28;20395;-74
2022/09/11 00:56:30;;;;;;;51.75;33.70;;;16.20;99.90;;;;;;5043986;28;20427;-73
2022/09/11 00:58:57;;;;;;;54.47;33.50;;;16.20;99.90;;;;;;5033003;28;20780;-72
2022/09/11 01:01:25;;;;;;;56.78;34.33;;;16.30;99.90;;;;;;5032214;28;20788;-73
2022/09/11 01:03:51;;;;;;;55.90;34.00;;;16.30;99.90;;;;;;5030830;28;20391;-72
2022/09/11 01:06:19;;;;;;;54.97;34.70;;;16.40;99.90;;;;;;5031689;28;20448;-72
2022/09/11 01:08:47;;;;;;;52.53;33.85;;;16.50;99.90;;;;;;5031642;28;20379;-73
2022/09/11 01:11:32;;;;;;;51.90;33.80;;;16.60;99.90;;;;;;5032856;28;20386;-72
2022/09/11 01:14:14;;;;;;;52.15;33.20;;;16.60;99.90;;;;;;5033275;28;20370;-72
2022/09/11 01:16:49;;;;;;;52.80;34.30;;;16.60;99.90;;;;;;5035480;28;20444;-72
2022/09/11 01:19:52;;;;;;;53.30;34.53;;;16.70;99.90;;;;;;5033384;28;20430;-72
2022/09/11 01:22:55;;;;;;;50.55;33.45;;;16.70;99.90;;;;;;5032097;28;20393;-72
2022/09/11 01:25:39;;;;;;;55.65;34.03;;;16.70;99.90;;;;;;5031342;28;20391;-74
2022/09/11 01:28:15;;;;;;;54.65;34.10;;;16.80;99.90;;;;;;5031268;28;20407;-73
2022/09/11 01:30:48;;;;;;;52.67;34.50;;;16.80;99.90;;;;;;5031169;28;20389;-72
2022/09/11 01:33:27;;;;;;;61.22;37.33;;;16.80;99.90;;;;;;5030842;28;20395;-72
2022/09/11 01:36:06;;;;;;;64.20;37.63;;;16.60;99.90;;;;;;5031412;28;20760;-71
2022/09/11 01:38:37;;;;;;;54.60;36.08;;;16.70;99.90;;;;;;5031062;28;20379;-71
2022/09/11 01:41:15;;;;;;;61.30;36.58;;;16.80;99.90;;;;;;5030734;28;20379;-72
2022/09/11 01:43:53;;;;;;;57.15;37.25;;;16.80;99.90;;;;;;5029660;28;20387;-71
2022/09/11 01:46:21;;;;;;;61.15;37.58;;;16.80;99.90;;;;;;5030523;28;20595;-72
2022/09/11 01:48:51;;;;;;;59.33;36.78;;;16.80;99.90;;;;;;5030537;28;20442;-72
2022/09/11 01:51:24;;;;;;;60.30;37.37;;;16.80;99.90;;;;;;5030785;28;20403;-72
2022/09/11 01:53:55;;;;;;;60.13;38.07;;;16.80;99.90;;;;;;4968096;28;1815681;-74
2022/09/11 01:56:25;;;;;;;64.90;39.50;;;16.70;99.90;;;;;;5032340;28;20398;-72
2022/09/11 01:58:57;;;;;;;64.38;39.50;;;16.70;99.90;;;;;;5031415;28;20394;-72
2022/09/11 02:01:28;;;;;;;65.28;39.85;;;16.70;99.90;;;;;;5030896;28;20387;-72
2022/09/11 02:04:06;;;;;;;62.92;39.50;;;16.80;99.90;;;;;;5031635;28;20383;-72
2022/09/11 02:06:46;;;;;;;65.68;40.30;;;16.80;99.90;;;;;;5030626;28;20407;-73
2022/09/11 02:09:18;;;;;;;71.68;41.80;;;16.80;99.90;;;;;;5031894;28;20413;-72
2022/09/11 02:11:46;;;;;;;68.70;41.17;;;16.80;99.90;;;;;;5031530;28;20524;-72
2022/09/11 02:14:28;;;;;;;68.50;42.20;;;16.70;99.90;;;;;;5030048;28;20482;-72
2022/09/11 02:17:23;;;;;;;73.60;42.92;;;16.80;99.90;;;;;;5031749;28;20386;-72
2022/09/11 02:19:52;;;;;;;78.65;44.40;;;16.70;99.90;;;;;;5018706;28;20431;-73
2022/09/11 02:22:18;;;;;;;74.03;44.05;;;16.80;99.90;;;;;;5031741;28;20469;-73
2022/09/11 02:24:44;;;;;;;75.32;45.15;;;16.80;99.90;;;;;;5030108;28;20411;-73
2022/09/11 02:27:15;;;;;;;77.03;45.03;;;16.80;99.90;;;;;;5032253;28;20992;-71
2022/09/11 02:29:41;;;;;;;83.43;46.50;;;16.90;99.90;;;;;;5032479;28;20389;-72
2022/09/11 02:32:09;;;;;;;76.80;45.72;;;16.70;99.90;;;;;;5032639;28;20434;-72
2022/09/11 02:34:39;;;;;;;82.10;47.35;;;16.60;99.90;;;;;;5031809;28;20394;-72
2022/09/11 02:37:26;;;;;;;83.00;46.22;;;16.80;99.90;;;;;;5032952;28;20402;-72
2022/09/11 02:40:36;;;;;;;80.75;46.63;;;16.90;99.90;;;;;;5032314;28;20382;-72
2022/09/11 02:43:23;;;;;;;75.68;45.90;;;16.90;99.90;;;;;;5030660;28;20436;-72
2022/09/11 02:46:24;;;;;;;75.70;45.45;;;17.00;99.90;;;;;;5030648;28;20530;-72
2022/09/11 02:49:07;;;;;;;82.27;46.97;;;16.90;99.90;;;;;;5030623;28;20891;-71
2022/09/11 02:51:58;;;;;;;81.88;46.42;;;16.90;99.90;;;;;;5030700;28;20457;-72
2022/09/11 02:54:47;;;;;;;80.73;46.80;;;16.80;99.90;;;;;;5030672;28;20492;-72
2022/09/11 02:57:19;;;;;;;81.65;46.80;;;16.80;99.90;;;;;;5031198;28;20386;-74
2022/09/11 02:59:55;;;;;;;90.70;48.88;;;16.90;99.90;;;;;;5045848;28;20391;-73
2022/09/11 03:02:23;;;;;;;107.55;50.78;;;16.90;99.90;;;;;;5030117;28;20405;-71
2022/09/11 03:04:49;;;;;;;100.88;50.22;;;16.90;99.90;;;;;;5029383;28;20383;-71
2022/09/11 03:07:15;;;;;;;97.07;51.30;;;16.90;99.90;;;;;;5030295;28;20411;-72
2022/09/11 03:09:42;;;;;;;127.70;57.08;;;16.90;99.90;;;;;;5030518;28;20782;-70
2022/09/11 03:12:07;;;;;;;110.55;54.05;;;16.80;99.90;;;;;;5030395;28;20752;-73
2022/09/11 03:14:34;;;;;;;103.30;50.83;;;16.80;99.90;;;;;;5031273;28;20389;-71
2022/09/11 03:17:00;;;;;;;113.57;53.95;;;16.90;99.90;;;;;;5031871;28;20418;-73
2022/09/11 03:19:26;;;;;;;104.60;53.53;;;16.90;99.90;;;;;;5036311;28;20383;-73
2022/09/11 03:21:52;;;;;;;123.50;55.03;;;17.00;99.90;;;;;;5034778;28;20468;-71
2022/09/11 03:24:18;;;;;;;141.48;59.15;;;17.00;99.90;;;;;;5034037;28;20474;-72
2022/09/11 03:26:43;;;;;;;133.60;57.40;;;16.90;99.90;;;;;;5033971;28;20899;-74
2022/09/11 03:29:09;;;;;;;130.20;57.30;;;16.80;99.90;;;;;;5033813;28;20375;-71
2022/09/11 03:31:34;;;;;;;137.90;65.10;;;17.00;99.90;;;;;;5033074;28;20474;-71
2022/09/11 03:34:00;;;;;;;160.15;64.88;;;16.90;99.90;;;;;;5034090;28;20397;-72
2022/09/11 03:36:26;;;;;;;149.30;60.30;;;16.90;99.90;;;;;;5034819;28;20398;-72
2022/09/11 03:38:52;;;;;;;171.17;64.43;;;17.00;99.90;;;;;;5035125;28;20414;-71
2022/09/11 03:41:17;;;;;;;154.57;60.30;;;17.10;99.90;;;;;;5034693;28;20888;-71
2022/09/11 03:43:43;;;;;;;157.33;62.30;;;17.10;99.90;;;;;;5034541;28;20386;-71
2022/09/11 03:46:09;;;;;;;181.10;66.47;;;17.10;99.90;;;;;;5035261;28;20484;-73
2022/09/11 03:48:34;;;;;;;197.55;72.50;;;17.00;99.90;;;;;;5034978;28;20907;-71
2022/09/11 03:51:00;;;;;;;206.82;71.18;;;17.00;99.90;;;;;;5035161;28;20394;-71
2022/09/11 03:53:26;;;;;;;211.93;73.20;;;16.90;99.90;;;;;;5048367;23;20442;-72
2022/09/11 03:55:53;;;;;;;212.63;78.47;;;16.90;99.90;;;;;;5034335;28;20371;-73
2022/09/11 03:58:19;;;;;;;213.50;77.15;;;16.90;99.90;;;;;;5033570;28;20851;-73
2022/09/11 04:00:45;;;;;;;227.30;79.65;;;16.80;99.90;;;;;;5033000;28;20378;-72
2022/09/11 04:03:11;;;;;;;239.83;80.77;;;16.80;99.90;;;;;;5032632;28;20387;-73
2022/09/11 04:05:37;;;;;;;231.75;84.20;;;16.70;99.90;;;;;;5033147;28;20383;-72
2022/09/11 04:08:04;;;;;;;258.90;87.88;;;16.70;99.90;;;;;;5033392;28;20473;-73
2022/09/11 04:10:31;;;;;;;244.85;86.07;;;16.60;99.90;;;;;;5032951;28;20395;-72
2022/09/11 04:12:57;;;;;;;251.50;88.15;;;16.60;99.90;;;;;;5032699;28;20391;-72
2022/09/11 04:15:23;;;;;;;243.52;86.85;;;16.60;99.90;;;;;;5032747;28;20909;-73
2022/09/11 04:17:48;;;;;;;256.73;93.28;;;16.70;99.90;;;;;;5032803;28;20466;-72
2022/09/11 04:20:14;;;;;;;263.77;93.10;;;16.60;99.90;;;;;;5032864;28;20478;-72
2022/09/11 04:22:40;;;;;;;267.03;96.73;;;16.70;99.90;;;;;;5032463;28;20387;-72
2022/09/11 04:25:07;;;;;;;271.85;96.97;;;16.70;99.90;;;;;;5032729;28;20387;-72
2022/09/11 04:27:33;;;;;;;268.33;96.97;;;16.60;99.90;;;;;;5032526;28;20399;-71
2022/09/11 04:29:58;;;;;;;286.05;95.03;;;16.60;99.90;;;;;;5031085;28;20399;-72
2022/09/11 04:32:24;;;;;;;273.70;96.75;;;16.60;99.90;;;;;;5032247;28;20387;-71
2022/09/11 04:34:50;;;;;;;297.03;101.03;;;16.50;99.90;;;;;;5032446;28;20384;-72
2022/09/11 04:37:15;;;;;;;301.73;106.93;;;16.40;99.90;;;;;;5032586;28;20416;-71
2022/09/11 04:39:41;;;;;;;300.80;104.68;;;16.40;99.90;;;;;;5032536;28;20395;-71
2022/09/11 04:42:09;;;;;;;295.27;103.22;;;16.50;99.90;;;;;;5032937;28;20395;-72
2022/09/11 04:44:35;;;;;;;311.73;107.03;;;16.50;99.90;;;;;;5032924;28;20806;-72
2022/09/11 04:47:01;;;;;;;299.50;104.18;;;16.50;99.90;;;;;;5032977;28;20410;-71
2022/09/11 04:49:26;;;;;;;287.83;103.97;;;16.40;99.90;;;;;;5032947;28;20470;-72
2022/09/11 04:51:53;;;;;;;276.73;103.20;;;16.40;99.90;;;;;;5032169;28;20383;-72
2022/09/11 04:54:22;;;;;;;279.52;100.18;;;16.50;99.90;;;;;;5031957;28;20759;-71
2022/09/11 04:56:48;;;;;;;281.40;104.40;;;16.50;99.90;;;;;;5032044;28;20411;-72
2022/09/11 04:59:18;;;;;;;284.67;102.60;;;16.50;99.90;;;;;;5032178;28;20902;-72
2022/09/11 05:01:45;;;;;;;297.63;103.47;;;16.50;99.90;;;;;;5032320;28;20853;-72
2022/09/11 05:04:14;;;;;;;281.02;99.97;;;16.60;99.90;;;;;;5032050;28;20457;-72
2022/09/11 05:06:41;;;;;;;268.17;98.73;;;16.60;99.90;;;;;;5031678;28;20399;-72
2022/09/11 05:09:08;;;;;;;300.27;102.07;;;16.60;99.90;;;;;;5031778;28;20837;-72
2022/09/11 05:11:35;;;;;;;290.45;107.65;;;16.60;99.90;;;;;;5031701;28;20391;-71
2022/09/11 05:14:01;;;;;;;301.73;109.97;;;16.60;99.90;;;;;;5031870;28;20383;-71
2022/09/11 05:16:29;;;;;;;312.58;108.93;;;16.60;99.90;;;;;;5031533;28;20473;-72
2022/09/11 05:18:55;;;;;;;299.60;106.70;;;16.60;99.90;;;;;;5031978;28;20433;-74
2022/09/11 05:21:23;;;;;;;294.88;105.50;;;16.60;99.90;;;;;;5031625;28;20391;-74
2022/09/11 05:23:51;;;;;;;307.80;107.85;;;16.60;99.90;;;;;;5031737;28;20410;-74
2022/09/11 05:26:22;;;;;;;343.55;122.20;;;16.60;99.90;;;;;;5031717;28;20409;-72
2022/09/11 05:28:53;;;;;;;356.60;126.90;;;16.50;99.90;;;;;;5031812;28;20387;-72
2022/09/11 05:31:19;;;;;;;351.98;127.90;;;16.40;99.90;;;;;;5031534;28;20430;-72
2022/09/11 05:33:45;;;;;;;355.23;120.68;;;16.40;99.90;;;;;;5031351;28;20395;-72
2022/09/11 05:36:13;;;;;;;314.38;108.60;;;16.40;99.90;;;;;;5031367;28;20458;-72
2022/09/11 05:38:39;;;;;;;291.10;103.35;;;16.60;99.90;;;;;;5031496;28;20379;-73
2022/09/11 05:41:07;;;;;;;286.17;100.88;;;16.70;99.90;;;;;;5029264;28;20415;-73
2022/09/11 05:43:34;;;;;;;272.10;101.33;;;16.60;99.90;;;;;;5031118;28;20449;-73
2022/09/11 05:46:00;;;;;;;283.60;98.90;;;16.70;99.90;;;;;;5030112;28;20395;-72
2022/09/11 05:48:31;;;;;;;282.30;97.68;;;16.80;99.90;;;;;;5031399;28;20402;-71
2022/09/11 05:51:01;;;;;;;266.42;90.95;;;16.80;99.90;;;;;;5031032;28;20395;-71
2022/09/11 05:53:32;;;;;;;285.05;98.70;;;16.70;99.90;;;;;;5030836;28;20421;-72
2022/09/11 05:56:04;;;;;;;298.15;96.32;;;16.70;99.90;;;;;;5029845;28;20391;-73
2022/09/11 05:58:30;;;;;;;261.93;94.87;;;16.60;99.90;;;;;;5030806;28;20383;-72
2022/09/11 06:01:10;;;;;;;262.17;96.15;;;16.60;99.90;;;;;;5030710;28;20387;-72
2022/09/11 06:03:37;;;;;;;320.83;107.85;;;16.60;99.90;;;;;;5030827;28;20391;-72
2022/09/11 06:06:05;;;;;;;287.05;98.15;;;16.50;99.90;;;;;;5030709;28;20469;-72
2022/09/11 06:08:33;;;;;;;304.20;96.00;;;16.60;99.90;;;;;;5030893;28;20410;-71
2022/09/11 06:11:00;;;;;;;283.02;102.38;;;16.60;99.90;;;;;;5030595;28;20865;-72
2022/09/11 06:13:31;;;;;;;285.70;101.40;;;16.60;99.90;;;;;;5030187;28;20391;-72
2022/09/11 06:15:57;;;;;;;300.55;103.45;;;16.60;99.90;;;;;;5030555;28;20438;-72
2022/09/11 06:18:22;;;;;;;283.00;98.97;;;16.80;99.90;;;;;;5029224;28;20437;-74
2022/09/11 06:20:57;;;;;;;272.90;99.80;;;16.80;99.90;;;;;;5030556;28;20437;-74
2022/09/11 06:23:23;;;;;;;280.85;98.22;;;16.80;99.90;;;;;;5030449;28;20398;-73
2022/09/11 06:25:49;;;;;;;262.00;96.88;;;16.80;99.90;;;;;;5030552;28;20388;-72
2022/09/11 06:28:15;;;;;;;266.10;99.85;;;16.80;99.90;;;;;;5030612;28;20403;-73
2022/09/11 06:30:40;;;;;;;272.50;99.47;;;16.80;99.90;;;;;;5030345;28;20386;-74
2022/09/11 06:33:06;;;;;;;268.00;100.00;;;16.80;99.90;;;;;;5029962;28;20379;-72
2022/09/11 06:35:32;;;;;;;264.97;98.67;;;16.90;99.90;;;;;;5030288;28;20388;-71
2022/09/11 06:37:57;;;;;;;275.23;103.00;;;16.90;99.90;;;;;;5030555;28;20832;-71
2022/09/11 06:40:23;;;;;;;282.63;101.30;;;16.80;99.90;;;;;;5031015;28;20398;-72
2022/09/11 06:42:50;;;;;;;274.60;100.50;;;16.80;99.90;;;;;;5030663;28;20457;-72
2022/09/11 06:45:16;;;;;;;272.15;100.30;;;16.80;99.90;;;;;;5030960;28;20466;-72
2022/09/11 06:47:43;;;;;;;252.93;96.75;;;16.80;99.90;;;;;;5030182;28;20478;-72
2022/09/11 06:50:10;;;;;;;264.42;100.57;;;16.90;99.90;;;;;;5030521;28;20387;-72
2022/09/11 06:52:36;;;;;;;248.25;93.78;;;16.90;99.90;;;;;;5030573;28;20386;-72
2022/09/11 06:55:02;;;;;;;250.82;94.88;;;17.00;99.90;;;;;;5030423;28;20391;-72
2022/09/11 06:57:27;;;;;;;274.77;105.85;;;17.00;99.90;;;;;;5030487;28;20399;-71
2022/09/11 06:59:53;;;;;;;260.83;102.72;;;16.90;99.90;;;;;;5030931;28;20437;-73
2022/09/11 07:02:18;;;;;;;283.30;104.35;;;16.80;99.90;;;;;;5030784;28;20898;-74
2022/09/11 07:04:45;;;;;;;267.57;100.63;;;16.70;99.90;;;;;;5030514;28;20383;-72
2022/09/11 07:07:11;;;;;;;275.95;97.65;;;16.70;99.90;;;;;;5030735;28;20399;-74
2022/09/11 07:09:36;;;;;;;256.87;100.80;;;16.70;99.90;;;;;;5030946;28;20429;-72
2022/09/11 07:12:02;;;;;;;276.45;107.85;;;16.70;99.90;;;;;;5030555;28;20393;-72
2022/09/11 07:14:27;;;;;;;255.77;101.85;;;16.60;99.90;;;;;;5030680;28;20414;-73
2022/09/11 07:16:53;;;;;;;251.07;95.30;;;16.70;99.90;;;;;;5030999;28;20383;-73
2022/09/11 07:19:23;;;;;;;231.00;90.63;;;16.70;99.90;;;;;;5030626;28;20726;-73
2022/09/11 07:21:49;;;;;;;235.43;94.20;;;16.80;99.90;;;;;;5030395;28;20472;-74
2022/09/11 07:24:14;;;;;;;256.27;100.60;;;16.90;99.90;;;;;;5031736;28;20501;-74
2022/09/11 07:26:40;;;;;;;232.95;89.18;;;16.90;99.90;;;;;;5031050;28;20891;-72
2022/09/11 07:29:05;;;;;;;240.68;96.20;;;16.90;99.90;;;;;;5030244;28;20384;-72
2022/09/11 07:31:33;;;;;;;256.30;101.00;;;17.00;99.90;;;;;;5028900;28;20779;-72
2022/09/11 07:33:59;;;;;;;229.13;93.85;;;16.90;99.90;;;;;;5029100;28;20387;-72
2022/09/11 07:36:29;;;;;;;231.88;95.78;;;16.90;99.90;;;;;;5030261;28;20383;-70
2022/09/11 07:38:56;;;;;;;222.80;87.30;;;16.90;99.90;;;;;;5030012;28;20382;-72
2022/09/11 07:41:23;;;;;;;219.90;85.15;;;16.90;99.90;;;;;;5030100;28;20379;-70
2022/09/11 07:43:54;;;;;;;195.88;75.72;;;16.80;99.90;;;;;;5030034;28;20427;-72
2022/09/11 07:46:20;;;;;;;191.88;73.05;;;17.10;99.90;;;;;;5030413;28;20390;-72
2022/09/11 07:48:46;;;;;;;209.13;81.15;;;17.20;99.90;;;;;;5030697;28;20918;-74
2022/09/11 07:51:13;;;;;;;220.25;87.50;;;17.20;99.90;;;;;;5026028;28;20403;-75
2022/09/11 07:53:42;;;;;;;208.07;77.30;;;17.10;99.90;;;;;;5027936;28;20403;-72
2022/09/11 07:56:10;;;;;;;195.25;72.88;;;17.30;99.90;;;;;;5028258;28;20387;-72
2022/09/11 07:58:37;;;;;;;201.95;71.85;;;17.40;99.90;;;;;;5028240;28;20383;-73
2022/09/11 08:01:14;;;;;;;156.45;68.65;;;17.40;99.90;;;;;;5029551;28;20474;-75
2022/09/11 08:03:41;;;;;;;168.75;71.88;;;17.30;99.90;;;;;;5028480;28;20478;-72
2022/09/11 08:06:18;;;;;;;149.60;66.82;;;17.20;99.90;;;;;;5031756;28;20449;-72
2022/09/11 08:08:44;;;;;;;166.70;71.38;;;17.30;99.90;;;;;;5029290;28;20766;-73
2022/09/11 08:11:16;;;;;;;175.73;73.87;;;17.20;99.90;;;;;;5031788;28;20936;-72
2022/09/11 08:13:42;;;;;;;161.63;70.63;;;17.20;99.90;;;;;;5032028;28;20498;-73
2022/09/11 08:16:07;;;;;;;139.90;64.53;;;17.20;99.90;;;;;;5030947;28;20887;-73
2022/09/11 08:18:34;;;;;;;140.87;62.50;;;17.20;99.90;;;;;;5031489;28;20395;-76
2022/09/11 08:21:10;;;;;;;146.88;66.95;;;17.30;99.90;;;;;;5031214;28;20790;-71
2022/09/11 08:23:39;;;;;;;130.45;61.05;;;17.30;99.90;;;;;;5031493;28;20391;-74
2022/09/11 08:26:10;;;;;;;114.38;56.00;;;17.30;99.90;;;;;;5031759;28;20437;-73
2022/09/11 08:28:37;;;;;;;108.55;53.63;;;17.30;99.90;;;;;;5033815;28;21013;-73
2022/09/11 08:31:05;;;;;;;120.03;59.90;;;17.30;99.90;;;;;;5033827;28;20399;-74
2022/09/11 08:33:32;;;;;;;97.97;49.30;;;17.30;99.90;;;;;;5033768;28;20839;-73
2022/09/11 08:35:59;;;;;;;93.07;47.25;;;17.30;99.90;;;;;;5031604;28;20445;-73
2022/09/11 08:38:24;;;;;;;92.30;47.78;;;17.50;99.90;;;;;;5031175;28;20728;-73
2022/09/11 08:40:50;;;;;;;129.60;73.80;;;17.40;99.90;;;;;;5031265;28;20394;-72
2022/09/11 08:43:34;;;;;;;97.18;50.90;;;17.40;99.90;;;;;;5031207;28;20391;-72
2022/09/11 08:46:04;;;;;;;116.00;62.27;;;17.40;99.90;;;;;;5046481;28;20399;-73
2022/09/11 08:49:01;;;;;;;106.00;54.38;;;17.40;99.90;;;;;;5031076;28;20772;-73
2022/09/11 08:51:27;;;;;;;90.90;49.80;;;17.30;99.90;;;;;;5023548;28;20469;-72
2022/09/11 08:53:57;;;;;;;104.40;52.77;;;17.40;99.90;;;;;;5030975;28;20955;-72
2022/09/11 08:56:27;;;;;;;111.18;58.55;;;17.50;99.90;;;;;;5031736;28;20446;-73
2022/09/11 08:59:18;;;;;;;116.32;59.47;;;17.50;99.90;;;;;;5031201;28;20490;-75
2022/09/11 09:01:49;;;;;;;124.57;56.50;;;17.50;99.90;;;;;;5030222;28;20390;-72
2022/09/11 09:04:40;;;;;;;126.15;55.88;;;17.90;97.10;;;;;;5030943;28;20450;-72
2022/09/11 09:07:33;;;;;;;124.30;55.13;;;18.00;93.30;;;;;;5020308;28;20769;-72
2022/09/11 09:10:32;;;;;;;127.80;57.40;;;17.90;95.30;;;;;;5030488;28;20387;-74
2022/09/11 09:13:23;;;;;;;140.35;60.72;;;17.90;96.90;;;;;;5029104;28;20803;-72
2022/09/11 09:16:01;;;;;;;141.65;63.30;;;17.90;95.60;;;;;;5029168;28;20876;-71
2022/09/11 09:18:37;;;;;;;141.60;63.70;;;17.90;96.30;;;;;;5030538;28;20401;-73
2022/09/11 09:21:15;;;;;;;144.50;63.97;;;18.00;95.30;;;;;;5029781;28;20402;-73
2022/09/11 09:23:52;;;;;;;150.20;66.28;;;18.20;94.60;;;;;;5027968;28;20424;-73
2022/09/11 09:26:18;;;;;;;140.15;64.72;;;18.40;90.50;;;;;;5030228;28;21049;-72
2022/09/11 09:28:50;;;;;;;147.97;67.73;;;18.60;93.00;;;;;;5030234;28;20394;-72
2022/09/11 09:31:20;;;;;;;153.48;69.68;;;18.90;82.50;;;;;;5029877;28;20413;-72
2022/09/11 09:34:05;;;;;;;143.50;66.07;;;19.00;78.70;;;;;;5030242;28;20451;-71
2022/09/11 09:36:59;;;;;;;142.45;64.72;;;19.10;75.90;;;;;;5030249;28;20375;-72
2022/09/11 09:39:25;;;;;;;137.75;66.53;;;19.00;75.20;;;;;;5031248;28;20385;-73
2022/09/11 09:42:15;;;;;;;132.15;62.10;;;18.90;81.30;;;;;;5029770;28;20421;-74
2022/09/11 09:44:51;;;;;;;141.20;71.88;;;19.00;80.40;;;;;;5029995;28;20391;-72
2022/09/11 09:47:17;;;;;;;132.85;67.53;;;19.00;79.30;;;;;;5045354;28;20415;-73
2022/09/11 09:49:44;;;;;;;130.60;69.43;;;19.10;76.40;;;;;;5030542;28;20965;-73
2022/09/11 09:52:23;;;;;;;114.72;60.30;;;19.40;73.80;;;;;;5031145;28;20391;-74
2022/09/11 09:55:12;;;;;;;107.57;60.73;;;19.60;68.50;;;;;;5031831;22;20963;-73
2022/09/11 09:57:38;;;;;;;131.07;72.53;;;19.90;65.40;;;;;;5014947;28;20457;-72
2022/09/11 10:00:11;;;;;;;128.48;73.18;;;20.30;63.70;;;;;;5031067;28;20883;-74
2022/09/11 10:02:40;;;;;;;116.75;66.03;;;20.50;59.80;;;;;;5031232;28;20391;-73
2022/09/11 10:05:25;;;;;;;148.52;88.05;;;20.70;54.80;;;;;;5028364;28;20910;-72
2022/09/11 10:08:00;;;;;;;109.45;63.08;;;21.10;54.50;;;;;;5013777;28;20526;-73
2022/09/11 10:10:37;;;;;;;112.75;65.40;;;21.30;51.20;;;;;;5025115;28;20398;-74
2022/09/11 10:13:17;;;;;;;107.10;62.00;;;21.30;47.40;;;;;;5032135;28;20453;-74
2022/09/11 10:15:43;;;;;;;111.78;62.13;;;21.00;50.70;;;;;;5032100;28;20713;-75
2022/09/11 10:18:31;;;;;;;107.85;63.78;;;20.80;52.50;;;;;;5032392;28;20395;-73
2022/09/11 10:21:12;;;;;;;100.93;57.95;;;20.70;55.00;;;;;;5032115;28;20383;-73
2022/09/11 10:23:49;;;;;;;111.35;64.28;;;20.60;53.40;;;;;;5034000;28;20511;-73
2022/09/11 10:26:35;;;;;;;120.03;66.05;;;20.60;55.20;;;;;;5033766;28;20387;-72
2022/09/11 10:29:10;;;;;;;104.22;54.53;;;20.60;51.30;;;;;;5026599;28;20409;-74
2022/09/11 10:31:40;;;;;;;102.82;59.00;;;20.70;50.30;;;;;;4996552;28;20378;-73
2022/09/11 10:34:13;;;;;;;106.55;60.10;;;20.70;52.50;;;;;;4995794;28;21031;-73
2022/09/11 10:36:40;;;;;;;102.80;56.42;;;20.70;51.40;;;;;;4995913;28;20827;-72
2022/09/11 10:39:14;;;;;;;117.82;71.13;;;20.80;52.80;;;;;;5015747;28;20412;-73
2022/09/11 10:41:48;;;;;;;99.50;58.20;;;20.90;51.30;;;;;;5013701;28;20797;-72
2022/09/11 10:44:16;;;;;;;108.25;60.28;;;20.80;51.50;;;;;;5025410;28;20391;-73
2022/09/11 10:46:44;;;;;;;101.55;55.72;;;20.80;51.50;;;;;;5029621;28;20498;-73
2022/09/11 10:49:17;;;;;;;95.95;56.38;;;20.80;50.80;;;;;;5013538;28;20809;-74
2022/09/11 10:52:01;;;;;;;106.80;57.97;;;20.80;51.10;;;;;;5026169;28;20391;-74
2022/09/11 10:55:05;;;;;;;109.97;61.07;;;20.90;51.20;;;;;;5012497;28;20457;-72
2022/09/11 10:57:30;;;;;;;119.03;65.80;;;21.10;48.00;;;;;;4992079;28;20895;-73
2022/09/11 11:00:06;;;;;;;120.05;64.63;;;21.30;48.20;;;;;;4998659;28;20759;-72
2022/09/11 11:02:34;;;;;;;100.57;56.17;;;21.40;47.10;;;;;;5016757;28;20401;-74
2022/09/11 11:05:26;;;;;;;80.35;46.58;;;21.70;44.50;;;;;;4994687;28;20428;-74
2022/09/11 11:08:20;;;;;;;305.58;232.45;;;22.00;42.30;;;;;;5012278;28;20400;-75
2022/09/11 11:11:03;;;;;;;213.57;152.43;;;21.90;42.40;;;;;;5011910;28;20488;-76
2022/09/11 11:13:49;;;;;;;106.35;63.17;;;21.90;43.30;;;;;;5011920;28;20385;-75
2022/09/11 11:16:20;;;;;;;87.00;50.07;;;22.00;43.20;;;;;;5012652;28;20401;-73
2022/09/11 11:19:11;;;;;;;99.80;60.10;;;21.90;42.10;;;;;;5015298;28;20408;-75
2022/09/11 11:21:46;;;;;;;90.85;52.03;;;21.60;44.00;;;;;;5017540;28;20399;-75
2022/09/11 11:24:32;;;;;;;150.97;100.83;;;21.70;43.20;;;;;;5013595;28;20431;-73
2022/09/11 11:27:32;;;;;;;101.38;57.97;;;21.80;44.60;;;;;;5014134;28;20428;-74
2022/09/11 11:30:18;;;;;;;128.25;80.40;;;21.90;41.20;;;;;;4982851;28;20403;-76
2022/09/11 11:32:49;;;;;;;91.22;52.50;;;22.20;40.90;;;;;;5021388;28;20456;-77
2022/09/11 11:35:22;;;;;;;92.35;52.47;;;22.30;39.00;;;;;;5025396;28;20482;-78
2022/09/11 11:37:51;;;;;;;92.80;56.25;;;22.50;38.10;;;;;;5013619;28;20878;-78
2022/09/11 11:40:35;;;;;;;84.63;48.47;;;22.60;37.30;;;;;;5024141;28;20390;-74
2022/09/11 11:43:10;;;;;;;76.82;46.22;;;23.00;36.30;;;;;;5038094;28;20400;-74
2022/09/11 11:45:56;;;;;;;80.05;44.95;;;23.20;34.30;;;;;;5037475;28;20481;-76
2022/09/11 11:48:34;;;;;;;83.43;49.45;;;22.80;35.60;;;;;;5032924;28;20415;-73
2022/09/11 11:51:10;;;;;;;101.22;62.05;;;22.50;38.10;;;;;;5020115;28;20481;-74
2022/09/11 11:53:43;;;;;;;74.30;46.00;;;22.10;39.10;;;;;;5015522;28;20985;-76
2022/09/11 11:56:36;;;;;;;71.38;41.90;;;22.20;38.70;;;;;;5015222;28;20395;-72
2022/09/11 11:59:12;;;;;;;69.82;41.47;;;21.80;40.00;;;;;;5016643;28;20430;-75
2022/09/11 12:01:40;;;;;;;77.25;42.90;;;21.20;42.20;;;;;;5020100;28;20403;-76
2022/09/11 12:04:33;;;;;;;68.65;41.65;;;20.90;43.50;;;;;;5016435;28;20676;-75
2022/09/11 12:07:01;;;;;;;68.78;40.35;;;20.70;45.90;;;;;;5014570;28;20459;-73
2022/09/11 12:09:30;;;;;;;73.20;44.03;;;20.50;46.90;;;;;;5015415;28;20416;-74
2022/09/11 12:12:02;;;;;;;62.60;37.15;;;20.50;48.10;;;;;;5014451;28;20392;-77
2022/09/11 12:14:33;;;;;;;56.80;35.38;;;20.70;45.70;;;;;;5014411;28;20963;-75
2022/09/11 12:17:24;;;;;;;58.00;35.38;;;20.80;46.70;;;;;;5015864;28;20745;-74
2022/09/11 12:20:08;;;;;;;64.55;37.20;;;20.60;47.10;;;;;;5014766;28;20503;-73
2022/09/11 12:22:48;;;;;;;62.20;39.47;;;20.60;45.60;;;;;;5014523;28;20385;-74
2022/09/11 12:25:20;;;;;;;55.83;35.70;;;20.70;42.40;;;;;;5013443;28;20396;-74
2022/09/11 12:27:53;;;;;;;49.58;30.27;;;20.80;43.80;;;;;;5014902;28;20956;-75
2022/09/11 12:30:23;;;;;;;46.72;29.55;;;20.70;41.10;;;;;;5015952;28;20935;-75
2022/09/11 12:32:53;;;;;;;49.65;31.60;;;20.80;42.50;;;;;;5017052;28;20424;-75
2022/09/11 12:35:22;;;;;;;41.75;27.23;;;20.90;42.40;;;;;;5016001;28;20381;-75
2022/09/11 12:38:21;;;;;;;41.88;27.65;;;21.30;39.60;;;;;;5019048;28;20381;-75
2022/09/11 12:40:49;;;;;;;57.30;35.72;;;21.10;40.90;;;;;;4991473;28;20385;-74
2022/09/11 12:43:25;;;;;;;39.85;26.55;;;21.30;41.50;;;;;;5019086;28;20400;-76